Terminal Aerodrome Forecast
Issued by NWS

Home | Current Version | Previous Version | Text Only | Print | Product List | Glossary On
Versions: 1 2 3 4 5 6 7 8 9 10 11 12
000
FTUS45 KRIW 291700
TAFCPR
TAF
KCPR 291720Z 2918/3018 06011G16KT P6SM VCSH SCT040 OVC100
     FM291900 07011G18KT P6SM VCTS SCT050CB OVC080
     FM300200 09011KT P6SM VCSH SCT050 OVC070
     FM301100 07008KT P6SM SCT100 BKN150=

USA.gov is the U.S. government's official web portal to all federal, state and local government web resources and services.